Whiteoak, Missouri
Current Conditions -  °F | °C
As of 7:53 PM on Sunday 25 Jan 2015 (Local Time) from KHKA Reporting Station
Overcast Overcast  
Wind Chill: 36°   Ceiling: 3400
Heat Index: 44°   Visibility: 10mi
Dew Point: 37°   Wind: 20mph
Humidity: 76%   Direction: 310°NW
Pressure: 29.84"   Gusts: 25mph
Location:  36.13°N, 90.16°W
Report Text: KHKA 260153Z AUTO 31017G22KT 10SM OVC034 07/03 A2984 RMK AO2 SLP105 T00670028
Loading
Personal Weather Stations






























Interactive Weather Map New forecast layout! Learn more

10-Day Weather Forecast

Advertisements
Track Severe Weather on mobile